Terminal Aerodrome Forecast
Issued by NWS St Louis, MO

Home | Current Version | Previous Version | Text Only | Print | Product List | Glossary On
Versions: 1 2 3 4 5 6 7 8 9 10 11 12 13
412
FTUS43 KLSX 162338
TAFCOU
TAF
KCOU 162338Z 1700/1724 22014KT P6SM BKN250
     FM170200 22010KT P6SM BKN250 WS015/24040KT
     FM170900 21008KT P6SM FEW250 WS015/26045KT
     FM171400 22012KT P6SM FEW250=

USA.gov is the U.S. government's official web portal to all federal, state and local government web resources and services.